createdAt,value
2022-08-09T00:00:08.181Z,24.50
2022-08-09T00:02:42.871Z,24.37
2022-08-09T00:06:16.324Z,24.22
2022-08-09T00:08:31.931Z,24.14
2022-08-09T00:11:00.488Z,24.44
2022-08-09T00:13:28.285Z,24.44
2022-08-09T00:16:02.649Z,24.40
2022-08-09T00:18:35.504Z,24.41
2022-08-09T00:21:04.989Z,24.25
2022-08-09T00:23:56.095Z,24.43
2022-08-09T00:26:29.906Z,24.42
2022-08-09T00:29:02.090Z,24.33
2022-08-09T00:31:57.118Z,24.13
2022-08-09T00:34:19.454Z,24.03
2022-08-09T00:36:48.199Z,23.91
2022-08-09T00:40:13.128Z,24.10
2022-08-09T00:44:13.329Z,24.08
2022-08-09T00:44:53.615Z,23.89
2022-08-09T00:47:24.921Z,24.03
2022-08-09T00:49:56.627Z,24.11
2022-08-09T00:52:30.024Z,23.91
2022-08-09T00:55:00.417Z,23.99
2022-08-09T00:57:34.958Z,23.91
2022-08-09T01:00:21.571Z,23.93
2022-08-09T01:03:09.747Z,23.63
2022-08-09T01:05:53.131Z,23.85
2022-08-09T01:08:48.764Z,23.95
2022-08-09T01:11:29.073Z,23.64
2022-08-09T01:14:18.618Z,23.48
2022-08-09T01:16:49.294Z,23.76
2022-08-09T01:19:39.953Z,23.75
2022-08-09T01:22:16.403Z,23.72
2022-08-09T01:25:04.575Z,23.41
2022-08-09T01:27:33.721Z,23.27
2022-08-09T01:30:02.307Z,23.01
2022-08-09T01:32:45.469Z,23.36
2022-08-09T01:35:37.836Z,23.46
2022-08-09T01:38:10.767Z,23.42
2022-08-09T01:40:44.263Z,23.38
2022-08-09T01:43:11.742Z,23.41
2022-08-09T01:45:46.371Z,23.24
2022-08-09T01:48:16.559Z,23.33
2022-08-09T01:50:48.699Z,22.99
2022-08-09T01:53:28.921Z,23.25
2022-08-09T01:56:09.193Z,23.29
2022-08-09T01:58:37.329Z,22.78
2022-08-09T02:01:05.452Z,22.91
2022-08-09T02:03:35.897Z,22.79
2022-08-09T02:06:06.741Z,22.86
2022-08-09T02:08:56.997Z,22.65
2022-08-09T02:11:23.679Z,23.08
2022-08-09T02:14:06.124Z,23.07
2022-08-09T02:16:59.068Z,22.87
2022-08-09T02:19:23.930Z,22.80
2022-08-09T02:21:55.286Z,22.83
2022-08-09T02:24:26.051Z,22.82
2022-08-09T02:26:55.142Z,22.90
2022-08-09T02:29:24.408Z,22.76
2022-08-09T02:31:51.896Z,22.82
2022-08-09T02:34:25.779Z,22.79
2022-08-09T02:37:12.005Z,22.82
2022-08-09T02:39:44.475Z,22.75
2022-08-09T02:42:20.002Z,22.95
2022-08-09T02:45:03.123Z,22.80
2022-08-09T02:47:33.761Z,22.84
2022-08-09T02:50:21.694Z,22.85
2022-08-09T02:52:56.741Z,22.75
2022-08-09T02:55:24.779Z,22.64
2022-08-09T02:58:36.805Z,22.40
2022-08-09T03:00:59.971Z,22.55
2022-08-09T03:04:13.121Z,22.69
2022-08-09T03:06:21.428Z,22.75
2022-08-09T03:08:49.528Z,22.79
2022-08-09T03:12:04.724Z,22.86
2022-08-09T03:14:05.582Z,22.69
2022-08-09T03:16:33.234Z,22.75
2022-08-09T03:19:05.863Z,22.81
2022-08-09T03:21:42.135Z,22.68
2022-08-09T03:24:31.306Z,22.75
2022-08-09T03:27:07.282Z,22.04
2022-08-09T03:29:35.637Z,21.88
2022-08-09T03:32:10.833Z,22.20
2022-08-09T03:34:38.903Z,22.45
2022-08-09T03:37:10.726Z,22.49
2022-08-09T03:39:55.555Z,22.13
2022-08-09T03:42:28.833Z,21.97
2022-08-09T03:44:59.001Z,22.17
2022-08-09T03:47:26.718Z,21.95
2022-08-09T03:49:58.326Z,22.02
2022-08-09T03:52:28.020Z,22.44
2022-08-09T03:54:56.664Z,22.56
2022-08-09T03:57:24.158Z,22.82
2022-08-09T03:59:54.248Z,22.66
2022-08-09T04:02:26.117Z,22.39
2022-08-09T04:04:56.152Z,22.41
2022-08-09T04:07:23.735Z,22.74
2022-08-09T04:10:11.319Z,22.46
2022-08-09T04:12:44.713Z,22.44
2022-08-09T04:15:29.602Z,22.46
2022-08-09T04:18:00.526Z,22.71
2022-08-09T04:20:28.962Z,23.08
2022-08-09T04:22:56.450Z,23.32
2022-08-09T04:25:26.784Z,23.06
2022-08-09T04:27:59.996Z,23.10
2022-08-09T04:30:31.874Z,23.13
2022-08-09T04:33:02.446Z,23.35
2022-08-09T04:35:32.873Z,23.38
2022-08-09T04:38:03.507Z,23.18
2022-08-09T04:40:48.302Z,23.34
2022-08-09T04:43:25.238Z,23.05
2022-08-09T04:45:52.920Z,23.09
2022-08-09T04:48:23.877Z,23.24
2022-08-09T04:51:00.916Z,23.01
2022-08-09T04:53:31.508Z,23.21
2022-08-09T04:55:59.878Z,23.44
2022-08-09T04:58:27.813Z,23.59
2022-08-09T05:00:56.452Z,23.58
2022-08-09T05:03:42.953Z,23.70
2022-08-09T05:06:11.873Z,24.54
2022-08-09T05:08:49.608Z,26.10
2022-08-09T05:11:17.011Z,26.83
2022-08-09T15:54:07.986Z,34.55
2022-08-09T15:56:23.379Z,34.94
2022-08-09T15:58:53.237Z,34.33
2022-08-09T16:01:20.655Z,33.97
2022-08-09T16:03:50.915Z,34.30
2022-08-09T16:06:34.694Z,34.22
2022-08-09T16:09:05.234Z,33.53
2022-08-09T16:11:33.816Z,34.08
2022-08-09T16:14:07.716Z,34.27
2022-08-09T16:16:37.346Z,33.74
2022-08-09T16:19:06.183Z,33.75
2022-08-09T16:21:35.928Z,34.41
2022-08-09T16:24:04.747Z,34.27
2022-08-09T16:26:34.707Z,33.91
2022-08-09T16:29:11.023Z,33.16
2022-08-09T16:32:18.803Z,33.54
2022-08-09T16:34:53.565Z,33.64
2022-08-09T16:37:54.942Z,33.00
2022-08-09T16:40:12.257Z,33.35
2022-08-09T16:42:45.328Z,33.69
2022-08-09T16:45:23.654Z,33.12
2022-08-09T16:48:42.730Z,32.96
2022-08-09T16:50:42.231Z,33.50
2022-08-09T16:53:26.794Z,33.23
2022-08-09T16:56:07.528Z,32.48
2022-08-09T16:58:39.877Z,33.15
2022-08-09T17:01:10.605Z,33.18
2022-08-09T17:03:38.196Z,32.59
2022-08-09T17:06:31.385Z,32.78
2022-08-09T17:09:08.437Z,32.69
2022-08-09T17:11:40.476Z,31.78
2022-08-09T17:14:25.380Z,31.43
2022-08-09T17:16:56.434Z,31.09
2022-08-09T17:19:47.686Z,30.74
2022-08-09T17:22:24.708Z,30.92
2022-08-09T17:25:04.813Z,30.58
2022-08-09T17:27:38.583Z,30.36
2022-08-09T17:30:07.210Z,30.32
2022-08-09T17:32:45.389Z,30.36
2022-08-09T17:35:14.242Z,30.45
2022-08-09T17:38:11.244Z,30.40
2022-08-09T17:40:30.167Z,32.67
2022-08-09T17:43:03.283Z,33.99
2022-08-09T17:46:04.389Z,34.85
2022-08-09T17:48:35.356Z,34.99
2022-08-09T17:51:18.247Z,34.78
2022-08-09T17:53:51.624Z,35.05
2022-08-09T17:56:27.268Z,35.43
2022-08-09T17:58:59.797Z,35.26
2022-08-09T18:01:58.077Z,34.96
2022-08-09T18:04:16.378Z,35.17
2022-08-09T18:06:49.673Z,35.42
2022-08-09T18:09:35.796Z,35.23
2022-08-09T18:12:17.903Z,35.39
2022-08-09T18:14:53.671Z,34.90
2022-08-09T18:18:01.590Z,34.76
2022-08-09T18:20:56.083Z,34.70
2022-08-09T18:23:04.862Z,34.76
2022-08-09T18:25:50.827Z,34.52
2022-08-09T18:30:38.595Z,34.39
2022-08-09T18:31:09.298Z,33.67
2022-08-09T18:33:36.901Z,33.62
2022-08-09T18:36:08.415Z,33.18
2022-08-09T18:38:42.145Z,33.26
2022-08-09T18:41:09.754Z,33.39
2022-08-09T18:43:37.125Z,32.81
2022-08-09T18:46:49.611Z,33.03
2022-08-09T18:49:08.213Z,32.70
2022-08-09T18:51:38.144Z,32.69
2022-08-09T18:54:29.600Z,32.76
2022-08-09T18:57:06.029Z,33.16
2022-08-09T18:59:48.757Z,32.67
2022-08-09T19:02:20.051Z,32.42
2022-08-09T19:05:14.916Z,32.92
2022-08-09T19:07:35.919Z,31.37
2022-08-09T19:10:14.533Z,30.03
2022-08-09T19:12:50.139Z,29.45
2022-08-09T19:15:23.005Z,29.38
2022-08-09T19:17:56.178Z,29.21
2022-08-09T19:20:24.451Z,29.13
2022-08-09T19:22:54.474Z,28.86
2022-08-09T19:25:41.935Z,28.56
2022-08-09T19:28:13.291Z,28.50
2022-08-09T19:30:44.525Z,28.61
2022-08-09T19:33:19.192Z,28.68
2022-08-09T19:35:57.179Z,28.30
2022-08-09T19:38:26.910Z,28.18
2022-08-09T19:40:54.472Z,28.12
2022-08-09T19:43:58.047Z,27.97
2022-08-09T19:46:14.521Z,27.76
2022-08-09T19:49:01.938Z,28.81
2022-08-09T19:51:31.182Z,29.31
2022-08-09T19:53:59.292Z,28.50
2022-08-09T19:56:28.681Z,28.86
2022-08-09T19:59:39.373Z,28.39
2022-08-09T20:02:00.500Z,28.11
2022-08-09T20:04:37.534Z,27.75
2022-08-09T20:07:16.028Z,27.74
2022-08-09T20:09:50.350Z,27.19
2022-08-09T20:12:37.749Z,27.21
2022-08-09T20:16:31.443Z,27.28
2022-08-09T20:17:54.776Z,27.28
2022-08-09T20:20:24.943Z,27.10
2022-08-09T20:22:56.217Z,26.69
2022-08-09T20:25:25.372Z,26.77
2022-08-09T20:27:53.101Z,26.79
2022-08-09T20:30:24.000Z,26.89
2022-08-09T20:32:52.886Z,26.58
2022-08-09T20:35:21.660Z,26.91
2022-08-09T20:38:22.171Z,27.03
2022-08-09T20:40:37.085Z,26.89
2022-08-09T20:43:18.467Z,26.97
2022-08-09T20:45:56.948Z,26.71
2022-08-09T20:48:29.099Z,26.55
2022-08-09T20:50:59.561Z,26.87
2022-08-09T20:53:36.347Z,26.55
2022-08-09T20:56:06.817Z,26.78
2022-08-09T20:58:36.395Z,26.63
2022-08-09T21:01:33.644Z,26.55
2022-08-09T21:05:48.147Z,26.32
2022-08-09T21:06:42.885Z,26.53
2022-08-09T21:09:13.458Z,26.69
2022-08-09T21:14:31.290Z,26.51
2022-08-09T21:16:59.438Z,26.49
2022-08-09T21:20:19.055Z,26.53
2022-08-09T21:22:36.021Z,26.38
2022-08-09T21:25:21.558Z,26.42
2022-08-09T21:27:52.290Z,26.35
2022-08-09T21:30:22.454Z,26.47
2022-08-09T21:32:50.581Z,26.38
2022-08-09T21:35:18.009Z,26.21
2022-08-09T21:37:59.541Z,26.13
2022-08-09T21:40:30.837Z,25.74
2022-08-09T21:43:00.678Z,25.44
2022-08-09T21:45:28.301Z,25.25
2022-08-09T21:47:55.861Z,25.56
2022-08-09T21:50:23.747Z,25.78
2022-08-09T21:53:04.139Z,25.82
2022-08-09T21:55:32.387Z,25.69
2022-08-09T21:58:02.687Z,25.75
2022-08-09T22:00:32.713Z,25.70
2022-08-09T22:03:01.011Z,25.63
2022-08-09T22:05:35.464Z,25.55
2022-08-09T22:08:13.465Z,25.57
2022-08-09T22:11:49.567Z,25.11
2022-08-09T22:13:31.445Z,25.07
2022-08-09T22:16:03.713Z,25.33
2022-08-09T22:18:32.869Z,25.46
2022-08-09T22:21:01.090Z,25.58
2022-08-09T22:23:35.578Z,25.23
2022-08-09T22:26:34.064Z,24.97
2022-08-09T22:29:05.325Z,25.15
2022-08-09T22:31:36.188Z,25.36
2022-08-09T22:34:14.450Z,25.23
2022-08-09T22:36:46.444Z,25.26
2022-08-09T22:39:47.275Z,25.23
2022-08-09T22:42:03.039Z,25.08
2022-08-09T22:44:33.481Z,24.98
2022-08-09T22:48:13.618Z,24.65
2022-08-09T22:49:52.041Z,24.90
2022-08-09T22:52:19.979Z,24.99
2022-08-09T22:54:47.801Z,25.07
2022-08-09T22:57:15.235Z,25.01
2022-08-09T22:59:55.978Z,25.09
2022-08-09T23:02:27.381Z,25.02
2022-08-09T23:04:55.364Z,24.71
2022-08-09T23:08:23.354Z,24.91
2022-08-09T23:10:31.006Z,24.77
2022-08-09T23:12:58.691Z,24.82
2022-08-09T23:15:26.813Z,24.94
2022-08-09T23:17:54.344Z,24.87
2022-08-09T23:20:21.905Z,24.87
2022-08-09T23:22:49.418Z,24.54
2022-08-09T23:25:16.946Z,24.34
2022-08-09T23:28:14.142Z,24.58
2022-08-09T23:30:31.948Z,24.45
2022-08-09T23:32:59.389Z,24.48
2022-08-09T23:35:26.928Z,24.39
2022-08-09T23:37:54.269Z,24.44
2022-08-09T23:40:21.661Z,24.38
2022-08-09T23:42:49.121Z,24.27
2022-08-09T23:45:37.325Z,24.17
2022-08-09T23:48:08.563Z,24.21
2022-08-09T23:50:37.376Z,24.45
2022-08-09T23:53:04.853Z,24.48
2022-08-09T23:55:33.330Z,24.33
2022-08-09T23:58:10.595Z,24.11
